This is the latest recevied weather packets stored in our database for station/object JA7ZQY-10. If no packets are shown the sender has not sent any weather packets the latest 10 day(s).
| Time | Temp. | Humidity | Pressure | Rain* | Wind** | Luminosity | Snow |
|---|---|---|---|---|---|---|---|
| 1777982091 | 14.44° C | 42% | 1018.2 hPa | 0 mm | - | - | - |
| 1777981490 | 14.44° C | 44% | 1018.3 hPa | 0 mm | - | - | - |
| 1777980890 | 14.44° C | 46% | 1018.1 hPa | 0 mm | - | - | - |
| 1777980291 | 14.44° C | 50% | 1018.1 hPa | 0 mm | - | - | - |
| 1777979691 | 13.89° C | 53% | 1017.8 hPa | 0 mm | - | - | - |
| 1777979090 | 14.44° C | 55% | 1017.7 hPa | 0 mm | - | - | - |
| 1777978491 | 14.44° C | 57% | 1017.5 hPa | 0 mm | - | - | - |
| 1777977890 | 14.44° C | 59% | 1017.5 hPa | 0 mm | - | - | - |
| 1777977291 | 14.44° C | 59% | 1017.3 hPa | 0 mm | - | - | - |
| 1777976690 | 14.44° C | 57% | 1017.1 hPa | 0 mm | - | - | - |
| 1777976091 | 15° C | 55% | 1017 hPa | 0 mm | - | - | - |
| 1777975492 | 15° C | 54% | 1016.7 hPa | 0 mm | - | - | - |
| 1777974891 | 15.56° C | 53% | 1016.9 hPa | 0 mm | - | - | - |
| 1777974290 | 15.56° C | 54% | 1016.8 hPa | 0 mm | - | - | - |
| 1777973690 | 15.56° C | 56% | 1016.9 hPa | 0 mm | - | - | - |
| 1777973089 | 15.56° C | 58% | 1017 hPa | 0 mm | - | - | - |
| 1777972490 | 16.11° C | 57% | 1016.7 hPa | 0 mm | - | - | - |
| 1777971891 | 16.67° C | 51% | 1016.7 hPa | 0 mm | - | - | - |
| 1777971290 | 16.67° C | 47% | 1017 hPa | 0 mm | - | - | - |
| 1777970690 | 17.22° C | 47% | 1016.7 hPa | 0 mm | - | - | - |
| 1777970090 | 17.22° C | 50% | 1016.7 hPa | 0 mm | - | - | - |
| 1777969490 | 17.78° C | 45% | 1016.6 hPa | 0 mm | - | - | - |
| 1777968891 | 17.78° C | 44% | 1017 hPa | 0 mm | - | - | - |
| 1777968289 | 17.78° C | 43% | 1016.9 hPa | 0 mm | - | - | - |
| 1777967690 | 17.78° C | 43% | 1016.9 hPa | 0 mm | - | - | - |
* Rain latest hour (hover to see other rain measurements)
** Current wind speed in m/s (hover to see current wind gust speed)